Woolstock, Iowa
Current Conditions -  °F | °C
As of 4:55 PM on Saturday 25 Oct 2014 (Local Time) from KEBS Reporting Station
Clear Clear  
Wind Chill: 68°   Ceiling: Unl
Heat Index: 68°   Visibility: 10mi
Dew Point: 34°   Wind: 7mph
Humidity: 28%   Direction: 310°NW
Pressure: 30.06"   Gusts: NA
Location:  42.57°N, 93.84°W
Report Text: KEBS 252155Z AUTO 31006KT 10SM CLR 20/01 A3006 RMK AO2
Loading
Personal Weather Stations






























Interactive Weather Map New forecast layout! Learn more

10-Day Weather Forecast

Advertisements
Track Severe Weather on mobile